createdAt,value
2022-09-23T00:09:24.683Z,0.00
2022-09-23T00:19:31.071Z,0.00
2022-09-23T00:29:37.166Z,0.00
2022-09-23T00:39:43.260Z,0.00
2022-09-23T00:49:49.577Z,0.00
2022-09-23T00:59:55.892Z,0.00
2022-09-23T01:10:02.528Z,0.00
2022-09-23T01:20:09.779Z,0.00
2022-09-23T01:30:15.506Z,0.00
2022-09-23T01:40:23.552Z,0.00
2022-09-23T01:50:29.737Z,0.00
2022-09-23T02:00:35.659Z,0.00
2022-09-23T02:10:42.193Z,0.00
2022-09-23T02:20:48.539Z,0.00
2022-09-23T02:30:54.517Z,0.00
2022-09-23T02:41:00.380Z,0.00
2022-09-23T02:51:06.424Z,0.00
2022-09-23T03:01:12.328Z,0.00
2022-09-23T03:11:19.348Z,0.00
2022-09-23T03:21:24.653Z,0.00
2022-09-23T03:31:33.090Z,0.00
2022-09-23T03:41:39.498Z,0.00
2022-09-23T03:51:46.877Z,0.00
2022-09-23T04:01:52.404Z,0.00
2022-09-23T04:11:59.467Z,0.00
2022-09-23T04:22:04.596Z,0.00
2022-09-23T04:32:11.441Z,0.00
2022-09-23T04:42:16.904Z,4.00
2022-09-23T04:52:24.900Z,16.00
2022-09-23T05:02:30.647Z,44.00
2022-09-23T05:12:37.119Z,104.00
2022-09-23T05:22:43.393Z,176.00
2022-09-23T05:32:49.989Z,252.00
2022-09-23T05:42:57.035Z,332.00
2022-09-23T05:53:03.627Z,412.00
2022-09-23T06:03:09.439Z,488.00
2022-09-23T06:13:16.585Z,548.00
2022-09-23T06:23:26.289Z,580.00
2022-09-23T06:33:37.208Z,620.00
2022-09-23T06:43:43.549Z,648.00
2022-09-23T06:53:52.447Z,664.00
2022-09-23T07:03:59.372Z,700.00
2022-09-23T07:14:07.601Z,716.00
2022-09-23T07:24:13.522Z,772.00
2022-09-23T07:34:19.746Z,804.00
2022-09-23T07:44:25.459Z,932.00
2022-09-23T07:54:32.663Z,1180.00
2022-09-23T08:04:38.498Z,1368.00
2022-09-23T08:14:46.846Z,1448.00
2022-09-23T08:24:55.028Z,1744.00
2022-09-23T08:35:02.223Z,1844.00
2022-09-23T08:45:08.706Z,1888.00
2022-09-23T08:55:14.738Z,2248.00
2022-09-23T09:05:20.917Z,2780.00
2022-09-23T09:15:27.406Z,3092.00
2022-09-23T09:25:34.368Z,3344.00
2022-09-23T09:35:41.379Z,4360.00
2022-09-23T09:45:47.150Z,4532.00
2022-09-23T09:55:55.204Z,4948.00
2022-09-23T10:06:01.311Z,6660.00
2022-09-23T10:16:09.121Z,28512.00
2022-09-23T10:26:14.755Z,31040.00
2022-09-23T10:36:20.368Z,43200.00
2022-09-23T10:46:26.110Z,36736.00
2022-09-23T10:56:31.678Z,42912.00
2022-09-23T11:06:37.901Z,46944.00
2022-09-23T11:16:44.644Z,50432.00
2022-09-23T11:26:51.507Z,50112.00
2022-09-23T11:36:57.825Z,4800.00
2022-09-23T11:47:03.823Z,33984.00
2022-09-23T11:57:10.387Z,6320.00
2022-09-23T12:07:16.509Z,6588.00
2022-09-23T12:17:23.032Z,39552.00
2022-09-23T12:27:29.315Z,32448.00
2022-09-23T12:37:35.269Z,4792.00
2022-09-23T12:47:41.353Z,7516.00
2022-09-23T12:57:47.791Z,33536.00
2022-09-23T13:07:54.370Z,31648.00
2022-09-23T13:18:00.428Z,30400.00
2022-09-23T13:28:06.643Z,29504.00
2022-09-23T13:38:13.031Z,22848.00
2022-09-23T13:48:18.727Z,22400.00
2022-09-23T13:58:24.948Z,15264.00
2022-09-23T14:08:31.404Z,10020.00
2022-09-23T14:18:37.133Z,5868.00
2022-09-23T14:28:43.491Z,4960.00
2022-09-23T14:38:49.479Z,2644.00
2022-09-23T14:48:55.164Z,3236.00
2022-09-23T14:59:00.929Z,2392.00
2022-09-23T15:09:07.111Z,1488.00
2022-09-23T15:19:13.276Z,1448.00
2022-09-23T15:29:19.059Z,1748.00
2022-09-23T15:39:35.459Z,1920.00
2022-09-23T15:49:36.089Z,1028.00
2022-09-23T15:59:42.135Z,852.00
2022-09-23T16:09:48.366Z,444.00
2022-09-23T16:19:54.381Z,324.00
2022-09-23T16:29:59.601Z,236.00
2022-09-23T16:40:05.279Z,168.00
2022-09-23T16:50:10.292Z,112.00
2022-09-23T17:01:46.255Z,48.00
2022-09-23T17:11:51.233Z,20.00
2022-09-23T17:21:56.727Z,4.00
2022-09-23T17:32:02.436Z,0.00
2022-09-23T17:42:07.894Z,0.00
2022-09-23T17:52:13.573Z,0.00
2022-09-23T18:02:19.240Z,0.00
2022-09-23T18:12:24.720Z,0.00
2022-09-23T18:22:29.686Z,0.00
2022-09-23T18:32:35.105Z,0.00
2022-09-23T18:42:40.519Z,32.00
2022-09-23T18:52:46.036Z,28.00
2022-09-23T19:02:51.750Z,28.00
2022-09-23T19:12:57.079Z,28.00
2022-09-23T19:23:02.882Z,28.00
2022-09-23T19:33:08.083Z,24.00
2022-09-23T19:43:13.455Z,0.00
2022-09-23T19:53:19.090Z,0.00
2022-09-23T20:03:24.226Z,0.00
2022-09-23T20:13:29.684Z,24.00
2022-09-23T20:23:35.158Z,28.00
2022-09-23T20:33:42.060Z,0.00
2022-09-23T20:43:47.503Z,0.00
2022-09-23T20:53:55.360Z,0.00
2022-09-23T21:04:01.244Z,0.00
2022-09-23T21:14:08.815Z,0.00
2022-09-23T21:34:26.486Z,0.00
2022-09-23T21:44:31.873Z,0.00
2022-09-23T21:54:38.694Z,0.00
2022-09-23T22:04:44.563Z,0.00
2022-09-23T22:14:51.616Z,0.00
2022-09-23T22:24:56.482Z,0.00
2022-09-23T22:35:03.494Z,0.00
2022-09-23T22:45:09.125Z,0.00
2022-09-23T22:55:15.634Z,0.00
2022-09-23T23:05:22.592Z,0.00
2022-09-23T23:15:30.562Z,0.00
2022-09-23T23:25:36.634Z,0.00
2022-09-23T23:35:43.746Z,0.00
2022-09-23T23:45:49.419Z,0.00
2022-09-23T23:55:55.982Z,0.00
